createdAt,value
2022-09-27T00:02:25.793Z,94.50
2022-09-27T00:04:54.045Z,94.33
2022-09-27T00:07:22.305Z,94.26
2022-09-27T00:09:50.480Z,94.31
2022-09-27T00:12:18.583Z,94.13
2022-09-27T00:14:46.697Z,94.20
2022-09-27T00:17:16.123Z,94.19
2022-09-27T00:19:44.521Z,94.02
2022-09-27T00:22:12.624Z,94.46
2022-09-27T00:24:40.702Z,93.98
2022-09-27T00:27:08.847Z,94.02
2022-09-27T00:29:37.705Z,93.58
2022-09-27T00:32:05.874Z,94.07
2022-09-27T00:34:35.513Z,94.05
2022-09-27T00:37:03.569Z,93.92
2022-09-27T00:39:31.653Z,94.21
2022-09-27T00:41:59.769Z,94.18
2022-09-27T00:45:02.155Z,94.18
2022-09-27T00:47:37.308Z,94.17
2022-09-27T00:50:15.589Z,94.08
2022-09-27T00:52:50.011Z,94.13
2022-09-27T00:55:22.216Z,93.88
2022-09-27T00:57:51.610Z,94.00
2022-09-27T01:00:20.055Z,93.98
2022-09-27T01:02:52.930Z,94.48
2022-09-27T01:05:26.155Z,93.99
2022-09-27T01:07:56.610Z,94.17
2022-09-27T01:10:26.503Z,94.18
2022-09-27T01:13:08.182Z,94.32
2022-09-27T01:15:44.886Z,94.32
2022-09-27T01:18:25.020Z,94.37
2022-09-27T01:21:44.882Z,94.25
2022-09-27T01:24:56.494Z,94.84
2022-09-27T01:28:06.453Z,94.47
2022-09-27T01:30:44.864Z,94.36
2022-09-27T01:33:35.739Z,94.63
2022-09-27T01:36:21.942Z,94.60
2022-09-27T01:39:07.107Z,94.63
2022-09-27T01:41:39.793Z,94.60
2022-09-27T01:44:18.127Z,94.60
2022-09-27T01:46:53.680Z,94.50
2022-09-27T01:49:29.238Z,94.25
2022-09-27T01:52:01.276Z,94.35
2022-09-27T01:54:39.124Z,94.32
2022-09-27T01:57:11.354Z,93.96
2022-09-27T01:59:46.454Z,93.95
2022-09-27T02:02:20.171Z,94.22
2022-09-27T02:04:50.889Z,94.51
2022-09-27T02:07:24.752Z,94.20
2022-09-27T02:09:57.834Z,94.32
2022-09-27T02:12:34.382Z,94.30
2022-09-27T02:15:08.277Z,94.36
2022-09-27T02:17:47.794Z,94.34
2022-09-27T02:20:22.778Z,94.62
2022-09-27T02:22:57.779Z,94.62
2022-09-27T02:25:30.488Z,94.38
2022-09-27T02:28:08.058Z,94.57
2022-09-27T02:30:36.247Z,94.66
2022-09-27T02:33:05.811Z,94.57
2022-09-27T02:35:36.367Z,94.74
2022-09-27T02:38:07.171Z,94.95
2022-09-27T02:40:42.571Z,94.64
2022-09-27T02:43:10.794Z,94.74
2022-09-27T02:45:53.254Z,94.60
2022-09-27T02:48:33.049Z,94.56
2022-09-27T02:51:27.413Z,94.52
2022-09-27T02:54:09.437Z,94.35
2022-09-27T02:56:46.258Z,94.65
2022-09-27T02:59:24.982Z,94.32
2022-09-27T03:02:11.077Z,94.61
2022-09-27T03:04:49.017Z,94.38
2022-09-27T03:07:18.461Z,94.93
2022-09-27T03:09:49.113Z,94.57
2022-09-27T03:12:22.607Z,94.37
2022-09-27T03:14:50.791Z,94.26
2022-09-27T03:17:18.884Z,94.62
2022-09-27T03:19:49.743Z,94.30
2022-09-27T03:22:18.400Z,94.22
2022-09-27T03:24:46.803Z,94.23
2022-09-27T03:27:14.911Z,94.73
2022-09-27T03:29:43.055Z,94.52
2022-09-27T03:32:11.286Z,94.54
2022-09-27T03:34:39.416Z,94.72
2022-09-27T03:37:09.362Z,94.35
2022-09-27T03:39:37.569Z,94.38
2022-09-27T03:42:05.925Z,94.32
2022-09-27T03:44:34.094Z,94.41
2022-09-27T03:47:02.185Z,94.27
2022-09-27T03:49:30.343Z,94.61
2022-09-27T03:51:58.616Z,94.37
2022-09-27T03:54:28.073Z,94.56
2022-09-27T03:56:56.173Z,94.50
2022-09-27T03:59:24.271Z,94.70
2022-09-27T04:01:52.493Z,94.10
2022-09-27T04:04:20.650Z,94.07
2022-09-27T04:06:49.154Z,94.42
2022-09-27T04:09:17.391Z,94.65
2022-09-27T04:11:47.079Z,94.15
2022-09-27T04:14:15.107Z,94.72
2022-09-27T04:16:43.896Z,94.05
2022-09-27T04:19:12.480Z,94.30
2022-09-27T04:21:40.734Z,94.75
2022-09-27T04:24:08.836Z,94.55
2022-09-27T04:26:37.423Z,94.71
2022-09-27T04:29:09.736Z,94.39
2022-09-27T04:31:38.279Z,94.27
2022-09-27T04:34:06.581Z,94.45
2022-09-27T04:36:34.052Z,94.53
2022-09-27T04:39:07.020Z,94.43
2022-09-27T04:41:36.032Z,94.49
2022-09-27T04:44:06.518Z,94.74
2022-09-27T04:46:35.154Z,94.46
2022-09-27T04:49:04.221Z,94.59
2022-09-27T04:51:32.348Z,94.21
2022-09-27T04:54:00.656Z,94.33
2022-09-27T04:56:28.770Z,94.75
2022-09-27T04:58:56.979Z,94.85
2022-09-27T05:01:26.599Z,94.93
2022-09-27T05:03:54.812Z,94.07
2022-09-27T05:06:23.607Z,94.61
2022-09-27T05:08:51.728Z,94.19
2022-09-27T05:11:20.018Z,94.76
2022-09-27T05:13:48.186Z,94.13
2022-09-27T05:16:17.176Z,94.76
2022-09-27T05:18:46.794Z,94.53
2022-09-27T05:21:14.951Z,94.60
2022-09-27T05:23:45.943Z,94.51
2022-09-27T05:26:16.086Z,94.84
2022-09-27T05:28:44.318Z,94.31
2022-09-27T05:31:13.288Z,94.78
2022-09-27T05:33:41.880Z,94.30
2022-09-27T05:36:12.043Z,94.65
2022-09-27T05:38:41.793Z,94.13
2022-09-27T05:41:10.158Z,94.16
2022-09-27T05:43:38.506Z,94.79
2022-09-27T05:46:06.920Z,94.66
2022-09-27T05:48:35.411Z,94.68
2022-09-27T05:51:03.648Z,94.71
2022-09-27T05:53:33.496Z,94.90
2022-09-27T05:56:04.164Z,94.85
2022-09-27T05:58:32.480Z,94.26
2022-09-27T06:01:00.771Z,94.10
2022-09-27T06:03:29.039Z,94.54
2022-09-27T06:05:57.237Z,94.63
2022-09-27T06:08:25.462Z,94.52
2022-09-27T06:11:03.140Z,94.14
2022-09-27T06:13:33.497Z,94.21
2022-09-27T06:16:02.242Z,94.46
2022-09-27T06:18:30.559Z,94.34
2022-09-27T06:21:01.082Z,93.97
2022-09-27T06:23:29.932Z,94.14
2022-09-27T06:26:03.515Z,93.89
2022-09-27T06:28:31.898Z,94.41
2022-09-27T06:31:01.147Z,94.68
2022-09-27T06:33:29.910Z,93.84
2022-09-27T06:35:58.054Z,94.10
2022-09-27T06:38:26.609Z,94.00
2022-09-27T06:40:58.005Z,93.87
2022-09-27T06:43:27.607Z,93.83
2022-09-27T06:45:55.784Z,93.85
2022-09-27T06:48:24.987Z,94.13
2022-09-27T06:50:53.264Z,94.20
2022-09-27T06:53:21.389Z,94.02
2022-09-27T06:55:49.758Z,94.14
2022-09-27T06:58:36.333Z,93.64
2022-09-27T07:01:05.931Z,93.77
2022-09-27T07:03:40.107Z,93.87
2022-09-27T07:06:20.299Z,93.91
2022-09-27T07:08:53.103Z,93.97
2022-09-27T07:11:23.318Z,93.93
2022-09-27T07:13:51.995Z,93.77
2022-09-27T07:16:21.730Z,94.03
2022-09-27T07:18:51.091Z,94.37
2022-09-27T07:21:19.298Z,93.80
2022-09-27T07:23:47.583Z,93.80
2022-09-27T07:26:15.761Z,93.81
2022-09-27T07:28:44.983Z,93.89
2022-09-27T07:31:13.778Z,93.70
2022-09-27T07:33:43.767Z,93.56
2022-09-27T07:36:13.648Z,93.71
2022-09-27T07:38:41.857Z,93.73
2022-09-27T07:41:13.201Z,93.78
2022-09-27T07:43:41.561Z,93.75
2022-09-27T07:46:10.757Z,93.68
2022-09-27T07:48:38.924Z,93.27
2022-09-27T07:51:10.778Z,93.46
2022-09-27T07:53:39.645Z,93.64
2022-09-27T07:56:08.161Z,93.31
2022-09-27T07:58:36.274Z,93.31
2022-09-27T08:01:04.535Z,93.46
2022-09-27T08:03:32.701Z,93.06
2022-09-27T08:06:04.545Z,93.09
2022-09-27T08:08:34.095Z,93.07
2022-09-27T08:11:02.343Z,93.24
2022-09-27T08:13:30.702Z,93.19
2022-09-27T08:16:03.684Z,92.90
2022-09-27T08:18:32.002Z,93.02
2022-09-27T08:21:01.457Z,93.19
2022-09-27T08:23:30.823Z,92.69
2022-09-27T08:26:00.505Z,92.71
2022-09-27T08:28:29.128Z,92.90
2022-09-27T08:30:59.990Z,92.18
2022-09-27T08:33:32.355Z,92.33
2022-09-27T08:36:01.762Z,92.80
2022-09-27T08:38:29.940Z,92.19
2022-09-27T08:41:05.695Z,92.48
2022-09-27T08:43:42.231Z,91.84
2022-09-27T08:46:26.303Z,92.41
2022-09-27T08:49:01.749Z,92.12
2022-09-27T08:51:32.155Z,92.26
2022-09-27T08:54:06.748Z,91.41
2022-09-27T08:56:37.011Z,91.19
2022-09-27T08:59:13.737Z,91.88
2022-09-27T09:01:42.323Z,91.36
2022-09-27T09:04:12.163Z,91.07
2022-09-27T09:06:49.718Z,91.28
2022-09-27T09:09:30.808Z,90.88
2022-09-27T09:12:32.130Z,90.63
2022-09-27T09:15:14.755Z,90.69
2022-09-27T09:18:03.449Z,91.13
2022-09-27T09:20:50.778Z,91.27
2022-09-27T09:23:53.035Z,90.58
2022-09-27T09:26:34.138Z,90.07
2022-09-27T09:29:35.829Z,89.15
2022-09-27T09:32:21.917Z,88.54
2022-09-27T09:34:57.943Z,87.89
2022-09-27T09:37:41.006Z,87.32
2022-09-27T09:40:22.498Z,86.70
2022-09-27T09:42:58.670Z,85.93
2022-09-27T09:45:32.157Z,85.67
2022-09-27T09:48:09.829Z,85.88
2022-09-27T09:50:46.452Z,86.05
2022-09-27T09:53:19.600Z,85.42
2022-09-27T09:55:54.382Z,84.90
2022-09-27T09:58:27.758Z,84.46
2022-09-27T10:01:02.527Z,84.02
2022-09-27T10:03:30.727Z,83.19
2022-09-27T10:05:58.983Z,82.49
2022-09-27T10:08:27.189Z,82.45
2022-09-27T10:10:55.288Z,82.54
2022-09-27T10:13:23.870Z,82.59
2022-09-27T10:16:03.409Z,81.97
2022-09-27T10:18:33.256Z,81.56
2022-09-27T10:21:05.974Z,80.87
2022-09-27T10:23:34.165Z,80.95
2022-09-27T10:26:05.496Z,80.68
2022-09-27T10:28:37.418Z,81.00
2022-09-27T10:31:09.587Z,81.52
2022-09-27T10:33:41.517Z,82.30
2022-09-27T10:36:26.619Z,83.59
2022-09-27T10:38:56.297Z,83.85
2022-09-27T10:41:28.963Z,83.48
2022-09-27T10:43:57.132Z,83.97
2022-09-27T10:46:31.611Z,84.17
2022-09-27T10:49:20.225Z,84.65
2022-09-27T10:51:52.686Z,84.21
2022-09-27T10:54:24.181Z,84.21
2022-09-27T10:57:04.273Z,84.21
2022-09-27T10:59:36.170Z,84.48
2022-09-27T11:02:07.134Z,84.62
2022-09-27T11:04:38.572Z,84.87
2022-09-27T11:07:20.039Z,85.44
2022-09-27T11:09:56.067Z,85.26
2022-09-27T11:12:25.281Z,85.52
2022-09-27T11:14:58.417Z,86.02
2022-09-27T11:17:39.578Z,86.26
2022-09-27T11:20:18.839Z,86.08
2022-09-27T11:23:24.321Z,86.05
2022-09-27T11:26:14.710Z,86.56
2022-09-27T11:28:53.874Z,86.91
2022-09-27T11:31:44.050Z,87.62
2022-09-27T11:34:54.178Z,87.50
2022-09-27T11:37:33.951Z,87.47
2022-09-27T11:40:23.543Z,88.48
2022-09-27T11:43:11.791Z,87.65
2022-09-27T11:46:14.323Z,87.68
2022-09-27T11:49:14.683Z,88.34
2022-09-27T11:52:03.422Z,87.22
2022-09-27T11:54:53.303Z,85.95
2022-09-27T11:57:28.746Z,85.47
2022-09-27T12:00:23.769Z,85.80
2022-09-27T12:03:39.217Z,85.51
2022-09-27T12:06:13.317Z,84.78
2022-09-27T12:08:58.895Z,84.97
2022-09-27T12:11:32.533Z,84.17
2022-09-27T12:14:05.369Z,84.46
2022-09-27T12:16:35.018Z,84.15
2022-09-27T12:19:04.505Z,84.07
2022-09-27T12:21:34.338Z,83.99
2022-09-27T12:24:05.516Z,83.44
2022-09-27T12:26:40.006Z,83.84
2022-09-27T12:29:16.562Z,83.34
2022-09-27T12:31:51.788Z,83.73
2022-09-27T12:34:24.720Z,83.57
2022-09-27T12:37:00.565Z,82.77
2022-09-27T12:39:39.992Z,80.97
2022-09-27T12:42:17.941Z,80.06
2022-09-27T12:44:50.524Z,78.75
2022-09-27T12:47:40.100Z,77.18
2022-09-27T12:50:21.582Z,77.38
2022-09-27T12:52:57.295Z,77.08
2022-09-27T12:56:12.043Z,77.63
2022-09-27T12:59:13.520Z,77.27
2022-09-27T13:02:12.014Z,77.01
2022-09-27T13:05:00.551Z,76.88
2022-09-27T13:07:47.020Z,76.64
2022-09-27T13:10:45.219Z,76.21
2022-09-27T13:13:15.558Z,75.74
2022-09-27T13:15:46.513Z,75.77
2022-09-27T13:18:48.872Z,76.21
2022-09-27T13:21:59.531Z,76.36
2022-09-27T13:24:49.785Z,75.67
2022-09-27T13:27:41.724Z,75.71
2022-09-27T13:30:45.260Z,76.21
2022-09-27T13:33:47.256Z,75.96
2022-09-27T13:36:33.596Z,76.23
2022-09-27T13:39:22.562Z,75.50
2022-09-27T13:42:10.756Z,75.24
2022-09-27T13:45:05.714Z,75.27
2022-09-27T13:47:40.427Z,74.60
2022-09-27T13:50:23.785Z,74.83
2022-09-27T13:53:04.054Z,75.01
2022-09-27T13:55:46.709Z,75.20
2022-09-27T13:58:36.904Z,75.58
2022-09-27T14:01:15.347Z,76.18
2022-09-27T14:03:46.314Z,76.44
2022-09-27T14:06:20.347Z,76.60
2022-09-27T14:08:52.181Z,76.46
2022-09-27T14:11:27.344Z,76.55
2022-09-27T14:13:56.256Z,76.86
2022-09-27T14:16:24.651Z,76.45
2022-09-27T14:18:58.295Z,76.95
2022-09-27T14:21:34.410Z,76.77
2022-09-27T14:24:26.849Z,77.88
2022-09-27T14:27:12.967Z,78.42
2022-09-27T14:29:46.921Z,78.34
2022-09-27T14:32:17.519Z,78.76
2022-09-27T14:34:46.572Z,79.38
2022-09-27T14:37:24.226Z,79.86
2022-09-27T14:39:58.447Z,79.78
2022-09-27T14:42:32.890Z,79.92
2022-09-27T14:45:07.576Z,80.18
2022-09-27T14:47:35.713Z,80.67
2022-09-27T14:50:19.987Z,81.36
2022-09-27T14:52:49.837Z,80.98
2022-09-27T14:55:21.879Z,80.68
2022-09-27T14:57:54.941Z,80.83
2022-09-27T15:00:26.300Z,81.42
2022-09-27T15:02:56.601Z,81.46
2022-09-27T15:05:28.121Z,81.86
2022-09-27T15:07:58.200Z,81.82
2022-09-27T15:10:31.814Z,82.21
2022-09-27T15:13:03.501Z,82.81
2022-09-27T15:15:34.798Z,82.85
2022-09-27T15:18:05.289Z,83.17
2022-09-27T15:20:36.002Z,83.43
2022-09-27T15:23:06.224Z,83.35
2022-09-27T15:25:38.136Z,83.80
2022-09-27T15:28:17.640Z,84.04
2022-09-27T15:30:58.278Z,84.13
2022-09-27T15:33:31.607Z,84.10
2022-09-27T15:36:02.673Z,84.30
2022-09-27T15:38:32.624Z,84.96
2022-09-27T15:41:14.085Z,84.64
2022-09-27T15:43:55.883Z,85.06
2022-09-27T15:46:37.324Z,84.99
2022-09-27T15:49:34.459Z,85.49
2022-09-27T15:52:04.966Z,84.84
2022-09-27T15:54:35.745Z,85.11
2022-09-27T15:57:06.915Z,85.58
2022-09-27T15:59:37.700Z,85.91
2022-09-27T16:02:16.091Z,85.74
2022-09-27T16:04:45.306Z,85.81
2022-09-27T16:07:15.948Z,86.56
2022-09-27T16:09:45.388Z,86.03
2022-09-27T16:12:13.507Z,86.36
2022-09-27T16:14:43.020Z,86.60
2022-09-27T16:17:11.881Z,86.58
2022-09-27T16:19:40.228Z,86.87
2022-09-27T16:22:08.831Z,86.69
2022-09-27T16:24:37.216Z,86.84
2022-09-27T16:27:05.462Z,86.87
2022-09-27T16:29:33.971Z,86.75
2022-09-27T16:32:03.949Z,87.23
2022-09-27T16:34:32.213Z,86.89
2022-09-27T16:37:04.840Z,86.85
2022-09-27T16:39:33.238Z,87.07
2022-09-27T16:42:04.952Z,87.17
2022-09-27T16:44:34.130Z,87.38
2022-09-27T16:47:07.436Z,87.26
2022-09-27T16:49:53.271Z,87.55
2022-09-27T16:52:21.957Z,87.58
2022-09-27T16:54:50.054Z,87.73
2022-09-27T16:57:18.207Z,87.59
2022-09-27T16:59:47.861Z,88.07
2022-09-27T17:02:18.076Z,87.92
2022-09-27T17:04:46.354Z,88.01
2022-09-27T17:07:14.494Z,88.09
2022-09-27T17:09:42.762Z,88.13
2022-09-27T17:12:12.154Z,88.00
2022-09-27T17:14:40.488Z,88.42
2022-09-27T17:17:09.185Z,88.57
2022-09-27T17:19:39.182Z,88.46
2022-09-27T17:22:08.760Z,88.31
2022-09-27T17:24:37.209Z,88.69
2022-09-27T17:27:05.441Z,88.67
2022-09-27T17:29:33.619Z,88.72
2022-09-27T17:32:02.059Z,89.29
2022-09-27T17:34:30.239Z,88.82
2022-09-27T17:37:00.804Z,89.02
2022-09-27T17:39:28.978Z,88.57
2022-09-27T17:41:58.417Z,89.02
2022-09-27T17:44:27.066Z,89.32
2022-09-27T17:47:09.440Z,88.75
2022-09-27T17:49:55.286Z,89.04
2022-09-27T17:52:25.673Z,89.26
2022-09-27T17:54:55.526Z,88.83
2022-09-27T17:57:23.932Z,89.26
2022-09-27T17:59:53.527Z,88.91
2022-09-27T18:02:21.918Z,88.77
2022-09-27T18:04:50.019Z,89.08
2022-09-27T18:07:18.416Z,88.87
2022-09-27T18:09:47.946Z,89.08
2022-09-27T18:12:16.759Z,88.72
2022-09-27T18:14:45.793Z,88.09
2022-09-27T18:17:14.274Z,88.47
2022-09-27T18:19:42.427Z,87.99
2022-09-27T18:22:10.742Z,87.98
2022-09-27T18:24:38.942Z,87.82
2022-09-27T18:27:08.468Z,88.09
2022-09-27T18:29:36.574Z,87.59
2022-09-27T18:32:04.778Z,87.64
2022-09-27T18:34:32.993Z,87.62
2022-09-27T18:37:01.074Z,88.10
2022-09-27T18:39:29.197Z,87.37
2022-09-27T18:41:57.633Z,87.41
2022-09-27T18:44:27.347Z,87.45
2022-09-27T18:46:55.624Z,88.03
2022-09-27T18:49:27.718Z,88.11
2022-09-27T18:51:57.667Z,87.72
2022-09-27T18:54:25.773Z,87.34
2022-09-27T18:56:53.929Z,87.99
2022-09-27T18:59:23.793Z,88.06
2022-09-27T19:01:53.541Z,88.29
2022-09-27T19:04:24.692Z,87.99
2022-09-27T19:06:53.195Z,87.65
2022-09-27T19:09:21.595Z,88.07
2022-09-27T19:11:51.929Z,87.87
2022-09-27T19:14:22.420Z,88.01
2022-09-27T19:16:52.550Z,88.41
2022-09-27T19:19:22.184Z,88.58
2022-09-27T19:21:50.696Z,87.87
2022-09-27T19:24:19.179Z,88.66
2022-09-27T19:26:50.513Z,88.34
2022-09-27T19:29:18.876Z,87.94
2022-09-27T19:31:47.395Z,88.75
2022-09-27T19:34:17.197Z,88.67
2022-09-27T19:36:45.466Z,88.67
2022-09-27T19:39:13.617Z,89.06
2022-09-27T19:41:41.785Z,88.81
2022-09-27T19:44:10.267Z,88.11
2022-09-27T19:46:39.197Z,88.32
2022-09-27T19:49:07.668Z,88.51
2022-09-27T19:51:37.640Z,88.62
2022-09-27T19:54:06.267Z,89.17
2022-09-27T19:56:34.877Z,88.88
2022-09-27T19:59:07.112Z,89.00
2022-09-27T20:01:38.027Z,88.17
2022-09-27T20:04:06.256Z,88.67
2022-09-27T20:06:35.894Z,88.45
2022-09-27T20:09:04.166Z,88.45
2022-09-27T20:11:34.168Z,88.55
2022-09-27T20:14:02.489Z,88.56
2022-09-27T20:16:30.706Z,89.20
2022-09-27T20:19:00.878Z,88.26
2022-09-27T20:21:32.606Z,88.09
2022-09-27T20:24:04.453Z,88.61
2022-09-27T20:26:34.549Z,88.23
2022-09-27T20:29:05.217Z,88.18
2022-09-27T20:31:37.016Z,88.12
2022-09-27T20:34:06.875Z,89.08
2022-09-27T20:36:37.366Z,88.74
2022-09-27T20:39:09.781Z,88.40
2022-09-27T20:41:40.826Z,88.26
2022-09-27T20:44:11.330Z,88.47
2022-09-27T20:46:41.497Z,88.86
2022-09-27T20:49:11.744Z,88.56
2022-09-27T20:51:41.765Z,88.80
2022-09-27T20:54:14.416Z,89.08
2022-09-27T20:56:44.566Z,88.42
2022-09-27T20:59:17.796Z,88.25
2022-09-27T21:01:48.102Z,88.79
2022-09-27T21:04:18.469Z,88.48
2022-09-27T21:06:47.325Z,89.20
2022-09-27T21:09:19.000Z,88.49
2022-09-27T21:11:47.996Z,89.05
2022-09-27T21:14:16.438Z,88.81
2022-09-27T21:16:45.051Z,88.32
2022-09-27T21:19:13.553Z,89.26
2022-09-27T21:21:41.967Z,89.22
2022-09-27T21:24:10.117Z,89.00
2022-09-27T21:26:39.631Z,88.34
2022-09-27T21:29:11.251Z,89.35
2022-09-27T21:31:39.827Z,89.13
2022-09-27T21:34:08.262Z,88.65
2022-09-27T21:36:39.117Z,88.97
2022-09-27T21:39:09.702Z,89.52
2022-09-27T21:41:39.829Z,89.23
2022-09-27T21:44:08.863Z,88.74
2022-09-27T21:46:41.821Z,88.66
2022-09-27T21:49:11.033Z,89.00
2022-09-27T21:51:41.469Z,89.31
2022-09-27T21:54:13.962Z,89.36
2022-09-27T21:56:44.992Z,89.20
2022-09-27T21:59:16.038Z,89.56
2022-09-27T22:01:45.805Z,88.88
2022-09-27T22:04:14.477Z,88.80
2022-09-27T22:06:42.960Z,88.49
2022-09-27T22:09:15.460Z,89.60
2022-09-27T22:11:47.209Z,89.35
2022-09-27T22:14:16.345Z,89.08
2022-09-27T22:16:46.704Z,88.54
2022-09-27T22:19:16.830Z,88.56
2022-09-27T22:21:45.575Z,88.83
2022-09-27T22:24:17.072Z,89.04
2022-09-27T22:26:50.667Z,88.44
2022-09-27T22:29:19.337Z,89.24
2022-09-27T22:31:47.894Z,88.36
2022-09-27T22:34:28.781Z,88.53
2022-09-27T22:36:58.671Z,88.17
2022-09-27T22:39:26.779Z,89.46
2022-09-27T22:41:56.300Z,88.74
2022-09-27T22:44:24.455Z,88.49
2022-09-27T22:46:52.833Z,88.32
2022-09-27T22:49:20.965Z,89.30
2022-09-27T22:51:50.375Z,88.95
2022-09-27T22:54:18.747Z,89.32
2022-09-27T22:56:47.004Z,88.99
2022-09-27T22:59:17.812Z,88.96
2022-09-27T23:01:46.040Z,88.62
2022-09-27T23:04:14.699Z,89.76
2022-09-27T23:06:43.369Z,90.00
2022-09-27T23:09:12.287Z,89.47
2022-09-27T23:11:40.440Z,88.89
2022-09-27T23:14:09.791Z,89.69
2022-09-27T23:16:39.623Z,90.03
2022-09-27T23:19:08.222Z,89.39
2022-09-27T23:21:36.436Z,89.17
2022-09-27T23:24:04.706Z,89.71
2022-09-27T23:26:32.885Z,88.78
2022-09-27T23:29:03.325Z,89.37
2022-09-27T23:31:33.567Z,89.24
2022-09-27T23:34:05.888Z,89.19
2022-09-27T23:36:35.493Z,89.86
2022-09-27T23:39:03.567Z,90.37
2022-09-27T23:41:31.734Z,89.48
2022-09-27T23:43:59.771Z,89.38
2022-09-27T23:46:28.727Z,89.54
2022-09-27T23:48:58.902Z,89.41
2022-09-27T23:51:28.475Z,90.23
2022-09-27T23:53:57.115Z,89.19
2022-09-27T23:56:25.885Z,90.52
2022-09-27T23:58:54.046Z,90.48
